sensor_id;sensor_type;location;lat;lon;timestamp;P1;durP1;ratioP1;P2;durP2;ratioP2
10550;SDS011;5324;50.684;3.862;2022-10-30T00:00:24;7.57;;;4.00;;
10550;SDS011;5324;50.684;3.862;2022-10-30T00:02:50;4.95;;;3.58;;
10550;SDS011;5324;50.684;3.862;2022-10-30T00:05:16;11.13;;;4.03;;
10550;SDS011;5324;50.684;3.862;2022-10-30T00:07:44;7.20;;;4.20;;
10550;SDS011;5324;50.684;3.862;2022-10-30T00:10:10;10.40;;;5.00;;
10550;SDS011;5324;50.684;3.862;2022-10-30T00:12:36;9.47;;;4.07;;
10550;SDS011;5324;50.684;3.862;2022-10-30T00:15:02;8.50;;;4.37;;
10550;SDS011;5324;50.684;3.862;2022-10-30T00:17:28;10.63;;;4.70;;
10550;SDS011;5324;50.684;3.862;2022-10-30T00:19:54;9.07;;;4.13;;
10550;SDS011;5324;50.684;3.862;2022-10-30T00:22:20;7.53;;;4.13;;
10550;SDS011;5324;50.684;3.862;2022-10-30T00:24:46;9.27;;;4.63;;
10550;SDS011;5324;50.684;3.862;2022-10-30T00:27:12;6.80;;;4.70;;
10550;SDS011;5324;50.684;3.862;2022-10-30T00:29:38;7.25;;;4.72;;
10550;SDS011;5324;50.684;3.862;2022-10-30T00:32:04;12.03;;;4.90;;
10550;SDS011;5324;50.684;3.862;2022-10-30T00:34:30;9.80;;;4.53;;
10550;SDS011;5324;50.684;3.862;2022-10-30T00:36:56;10.07;;;4.57;;
10550;SDS011;5324;50.684;3.862;2022-10-30T00:39:22;6.40;;;4.83;;
10550;SDS011;5324;50.684;3.862;2022-10-30T00:41:48;9.50;;;4.93;;
10550;SDS011;5324;50.684;3.862;2022-10-30T00:46:59;10.63;;;4.73;;
10550;SDS011;5324;50.684;3.862;2022-10-30T00:49:30;10.63;;;4.87;;
10550;SDS011;5324;50.684;3.862;2022-10-30T00:51:56;9.37;;;5.23;;
10550;SDS011;5324;50.684;3.862;2022-10-30T00:54:22;10.33;;;5.03;;
10550;SDS011;5324;50.684;3.862;2022-10-30T00:56:48;16.20;;;5.20;;
10550;SDS011;5324;50.684;3.862;2022-10-30T00:59:16;13.43;;;5.60;;
10550;SDS011;5324;50.684;3.862;2022-10-30T01:01:43;11.10;;;4.60;;
10550;SDS011;5324;50.684;3.862;2022-10-30T01:04:11;9.57;;;4.73;;
10550;SDS011;5324;50.684;3.862;2022-10-30T01:06:38;6.77;;;4.27;;
10550;SDS011;5324;50.684;3.862;2022-10-30T01:09:04;9.13;;;4.63;;
10550;SDS011;5324;50.684;3.862;2022-10-30T01:11:30;10.53;;;4.13;;
10550;SDS011;5324;50.684;3.862;2022-10-30T01:13:58;10.90;;;5.40;;
10550;SDS011;5324;50.684;3.862;2022-10-30T01:26:35;9.23;;;5.77;;
10550;SDS011;5324;50.684;3.862;2022-10-30T01:31:44;9.13;;;5.67;;
10550;SDS011;5324;50.684;3.862;2022-10-30T01:34:18;11.70;;;5.23;;
10550;SDS011;5324;50.684;3.862;2022-10-30T01:36:46;6.90;;;4.40;;
10550;SDS011;5324;50.684;3.862;2022-10-30T01:39:16;8.03;;;4.80;;
10550;SDS011;5324;50.684;3.862;2022-10-30T01:41:43;8.73;;;4.63;;
10550;SDS011;5324;50.684;3.862;2022-10-30T01:44:29;8.43;;;4.70;;
10550;SDS011;5324;50.684;3.862;2022-10-30T01:49:29;8.27;;;4.63;;
10550;SDS011;5324;50.684;3.862;2022-10-30T01:54:30;10.63;;;4.57;;
10550;SDS011;5324;50.684;3.862;2022-10-30T02:00:27;11.53;;;4.47;;
10550;SDS011;5324;50.684;3.862;2022-10-30T02:02:22;8.00;;;4.17;;
10550;SDS011;5324;50.684;3.862;2022-10-30T02:04:48;9.57;;;4.13;;
10550;SDS011;5324;50.684;3.862;2022-10-30T02:07:14;9.13;;;4.17;;
10550;SDS011;5324;50.684;3.862;2022-10-30T02:09:40;6.07;;;4.10;;
10550;SDS011;5324;50.684;3.862;2022-10-30T02:12:07;6.70;;;4.20;;
10550;SDS011;5324;50.684;3.862;2022-10-30T02:14:35;7.80;;;4.20;;
10550;SDS011;5324;50.684;3.862;2022-10-30T02:17:02;11.30;;;4.37;;
10550;SDS011;5324;50.684;3.862;2022-10-30T02:19:29;7.00;;;4.97;;
10550;SDS011;5324;50.684;3.862;2022-10-30T02:21:55;7.67;;;4.17;;
10550;SDS011;5324;50.684;3.862;2022-10-30T02:24:21;6.37;;;4.30;;
10550;SDS011;5324;50.684;3.862;2022-10-30T02:26:47;10.23;;;4.83;;
10550;SDS011;5324;50.684;3.862;2022-10-30T02:29:13;6.47;;;4.50;;
10550;SDS011;5324;50.684;3.862;2022-10-30T02:31:39;17.27;;;4.67;;
10550;SDS011;5324;50.684;3.862;2022-10-30T02:34:05;10.07;;;5.20;;
10550;SDS011;5324;50.684;3.862;2022-10-30T02:36:31;10.37;;;5.13;;
10550;SDS011;5324;50.684;3.862;2022-10-30T02:38:57;8.53;;;4.23;;
10550;SDS011;5324;50.684;3.862;2022-10-30T02:41:24;8.27;;;3.93;;
10550;SDS011;5324;50.684;3.862;2022-10-30T02:43:50;7.43;;;4.57;;
10550;SDS011;5324;50.684;3.862;2022-10-30T02:46:17;8.33;;;4.57;;
10550;SDS011;5324;50.684;3.862;2022-10-30T02:48:43;7.33;;;4.60;;
10550;SDS011;5324;50.684;3.862;2022-10-30T02:51:09;9.30;;;4.50;;
10550;SDS011;5324;50.684;3.862;2022-10-30T02:53:36;8.67;;;4.60;;
10550;SDS011;5324;50.684;3.862;2022-10-30T02:56:06;7.03;;;4.30;;
10550;SDS011;5324;50.684;3.862;2022-10-30T02:58:32;6.97;;;4.67;;
10550;SDS011;5324;50.684;3.862;2022-10-30T03:01:12;9.03;;;4.73;;
10550;SDS011;5324;50.684;3.862;2022-10-30T03:03:38;8.30;;;4.97;;
10550;SDS011;5324;50.684;3.862;2022-10-30T03:06:06;5.87;;;4.20;;
10550;SDS011;5324;50.684;3.862;2022-10-30T03:08:32;8.00;;;4.27;;
10550;SDS011;5324;50.684;3.862;2022-10-30T03:11:03;8.80;;;4.50;;
10550;SDS011;5324;50.684;3.862;2022-10-30T03:13:30;8.47;;;4.57;;
10550;SDS011;5324;50.684;3.862;2022-10-30T03:16:03;7.93;;;4.37;;
10550;SDS011;5324;50.684;3.862;2022-10-30T03:18:30;11.13;;;5.03;;
10550;SDS011;5324;50.684;3.862;2022-10-30T03:20:57;8.67;;;4.73;;
10550;SDS011;5324;50.684;3.862;2022-10-30T03:23:23;9.37;;;4.47;;
10550;SDS011;5324;50.684;3.862;2022-10-30T03:25:53;10.47;;;4.93;;
10550;SDS011;5324;50.684;3.862;2022-10-30T03:28:20;9.67;;;4.43;;
10550;SDS011;5324;50.684;3.862;2022-10-30T03:30:46;9.80;;;4.63;;
10550;SDS011;5324;50.684;3.862;2022-10-30T03:33:12;12.70;;;5.43;;
10550;SDS011;5324;50.684;3.862;2022-10-30T03:35:38;9.83;;;4.97;;
10550;SDS011;5324;50.684;3.862;2022-10-30T03:38:04;6.90;;;4.33;;
10550;SDS011;5324;50.684;3.862;2022-10-30T03:40:30;10.53;;;4.50;;
10550;SDS011;5324;50.684;3.862;2022-10-30T03:42:56;12.10;;;4.70;;
10550;SDS011;5324;50.684;3.862;2022-10-30T03:45:22;11.07;;;4.97;;
10550;SDS011;5324;50.684;3.862;2022-10-30T03:47:48;9.40;;;4.93;;
10550;SDS011;5324;50.684;3.862;2022-10-30T03:50:14;7.93;;;4.47;;
10550;SDS011;5324;50.684;3.862;2022-10-30T03:52:40;10.70;;;5.00;;
10550;SDS011;5324;50.684;3.862;2022-10-30T03:55:06;9.00;;;4.43;;
10550;SDS011;5324;50.684;3.862;2022-10-30T03:57:35;8.10;;;4.17;;
10550;SDS011;5324;50.684;3.862;2022-10-30T04:00:01;7.97;;;4.70;;
10550;SDS011;5324;50.684;3.862;2022-10-30T04:02:27;11.77;;;4.77;;
10550;SDS011;5324;50.684;3.862;2022-10-30T04:04:53;12.80;;;5.20;;
10550;SDS011;5324;50.684;3.862;2022-10-30T04:07:19;7.73;;;4.67;;
10550;SDS011;5324;50.684;3.862;2022-10-30T04:09:45;9.07;;;4.10;;
10550;SDS011;5324;50.684;3.862;2022-10-30T04:12:11;9.43;;;4.67;;
10550;SDS011;5324;50.684;3.862;2022-10-30T04:14:37;11.90;;;5.30;;
10550;SDS011;5324;50.684;3.862;2022-10-30T04:17:02;7.67;;;4.83;;
10550;SDS011;5324;50.684;3.862;2022-10-30T04:19:30;9.83;;;4.93;;
10550;SDS011;5324;50.684;3.862;2022-10-30T04:21:56;7.43;;;4.23;;
10550;SDS011;5324;50.684;3.862;2022-10-30T04:24:22;5.93;;;4.33;;
10550;SDS011;5324;50.684;3.862;2022-10-30T04:26:48;8.37;;;4.50;;
10550;SDS011;5324;50.684;3.862;2022-10-30T04:29:14;8.70;;;5.00;;
10550;SDS011;5324;50.684;3.862;2022-10-30T04:31:40;7.17;;;4.10;;
10550;SDS011;5324;50.684;3.862;2022-10-30T04:34:06;8.70;;;4.00;;
10550;SDS011;5324;50.684;3.862;2022-10-30T04:36:32;6.80;;;4.33;;
10550;SDS011;5324;50.684;3.862;2022-10-30T04:38:58;7.23;;;4.50;;
10550;SDS011;5324;50.684;3.862;2022-10-30T04:41:24;8.37;;;4.57;;
10550;SDS011;5324;50.684;3.862;2022-10-30T04:43:51;8.90;;;4.83;;
10550;SDS011;5324;50.684;3.862;2022-10-30T04:46:17;6.93;;;4.60;;
10550;SDS011;5324;50.684;3.862;2022-10-30T04:48:43;9.27;;;4.13;;
10550;SDS011;5324;50.684;3.862;2022-10-30T04:51:09;8.73;;;4.80;;
10550;SDS011;5324;50.684;3.862;2022-10-30T04:53:36;7.53;;;4.90;;
10550;SDS011;5324;50.684;3.862;2022-10-30T04:56:03;10.13;;;4.73;;
10550;SDS011;5324;50.684;3.862;2022-10-30T04:58:29;11.30;;;5.07;;
10550;SDS011;5324;50.684;3.862;2022-10-30T05:00:59;11.90;;;4.90;;
10550;SDS011;5324;50.684;3.862;2022-10-30T05:03:26;11.00;;;4.87;;
10550;SDS011;5324;50.684;3.862;2022-10-30T05:05:56;7.07;;;4.53;;
10550;SDS011;5324;50.684;3.862;2022-10-30T05:08:22;9.13;;;5.07;;
10550;SDS011;5324;50.684;3.862;2022-10-30T05:10:48;7.93;;;4.80;;
10550;SDS011;5324;50.684;3.862;2022-10-30T05:13:14;13.60;;;4.93;;
10550;SDS011;5324;50.684;3.862;2022-10-30T05:15:40;6.03;;;4.37;;
10550;SDS011;5324;50.684;3.862;2022-10-30T05:18:06;7.57;;;4.23;;
10550;SDS011;5324;50.684;3.862;2022-10-30T05:20:32;7.50;;;4.13;;
10550;SDS011;5324;50.684;3.862;2022-10-30T05:22:58;6.17;;;3.67;;
10550;SDS011;5324;50.684;3.862;2022-10-30T05:25:25;9.33;;;4.37;;
10550;SDS011;5324;50.684;3.862;2022-10-30T05:27:58;12.93;;;4.87;;
10550;SDS011;5324;50.684;3.862;2022-10-30T05:30:25;5.63;;;4.60;;
10550;SDS011;5324;50.684;3.862;2022-10-30T05:32:56;7.93;;;4.30;;
10550;SDS011;5324;50.684;3.862;2022-10-30T05:35:22;9.77;;;4.73;;
10550;SDS011;5324;50.684;3.862;2022-10-30T05:37:48;10.20;;;4.60;;
10550;SDS011;5324;50.684;3.862;2022-10-30T05:40:14;13.07;;;5.10;;
10550;SDS011;5324;50.684;3.862;2022-10-30T05:42:49;9.87;;;4.67;;
10550;SDS011;5324;50.684;3.862;2022-10-30T05:45:15;9.90;;;4.67;;
10550;SDS011;5324;50.684;3.862;2022-10-30T05:47:41;8.13;;;4.03;;
10550;SDS011;5324;50.684;3.862;2022-10-30T05:50:07;12.07;;;5.17;;
10550;SDS011;5324;50.684;3.862;2022-10-30T05:52:33;10.47;;;4.33;;
10550;SDS011;5324;50.684;3.862;2022-10-30T05:54:59;7.43;;;4.20;;
10550;SDS011;5324;50.684;3.862;2022-10-30T05:57:29;8.33;;;4.03;;
10550;SDS011;5324;50.684;3.862;2022-10-30T05:59:57;9.43;;;4.73;;
10550;SDS011;5324;50.684;3.862;2022-10-30T06:02:23;8.27;;;4.60;;
10550;SDS011;5324;50.684;3.862;2022-10-30T06:04:49;11.03;;;5.03;;
10550;SDS011;5324;50.684;3.862;2022-10-30T06:07:15;8.03;;;4.60;;
10550;SDS011;5324;50.684;3.862;2022-10-30T06:09:41;14.80;;;4.63;;
10550;SDS011;5324;50.684;3.862;2022-10-30T06:12:07;6.37;;;4.33;;
10550;SDS011;5324;50.684;3.862;2022-10-30T06:14:33;9.40;;;4.30;;
10550;SDS011;5324;50.684;3.862;2022-10-30T06:16:59;6.30;;;4.47;;
10550;SDS011;5324;50.684;3.862;2022-10-30T06:19:25;7.50;;;4.27;;
10550;SDS011;5324;50.684;3.862;2022-10-30T06:21:51;11.13;;;4.40;;
10550;SDS011;5324;50.684;3.862;2022-10-30T06:24:18;10.67;;;4.80;;
10550;SDS011;5324;50.684;3.862;2022-10-30T06:26:44;13.37;;;4.60;;
10550;SDS011;5324;50.684;3.862;2022-10-30T06:29:10;8.57;;;4.30;;
10550;SDS011;5324;50.684;3.862;2022-10-30T06:31:36;5.90;;;3.67;;
10550;SDS011;5324;50.684;3.862;2022-10-30T06:34:02;6.30;;;4.30;;
10550;SDS011;5324;50.684;3.862;2022-10-30T06:36:29;6.20;;;4.10;;
10550;SDS011;5324;50.684;3.862;2022-10-30T06:38:55;11.67;;;4.60;;
10550;SDS011;5324;50.684;3.862;2022-10-30T06:41:21;8.23;;;4.67;;
10550;SDS011;5324;50.684;3.862;2022-10-30T06:43:47;11.17;;;5.00;;
10550;SDS011;5324;50.684;3.862;2022-10-30T06:46:13;11.07;;;4.87;;
10550;SDS011;5324;50.684;3.862;2022-10-30T06:48:39;8.57;;;4.63;;
10550;SDS011;5324;50.684;3.862;2022-10-30T06:51:05;7.70;;;5.20;;
10550;SDS011;5324;50.684;3.862;2022-10-30T06:53:31;11.30;;;4.57;;
10550;SDS011;5324;50.684;3.862;2022-10-30T06:55:58;12.40;;;4.53;;
10550;SDS011;5324;50.684;3.862;2022-10-30T06:58:24;9.97;;;4.83;;
10550;SDS011;5324;50.684;3.862;2022-10-30T07:00:51;11.87;;;5.37;;
10550;SDS011;5324;50.684;3.862;2022-10-30T07:03:18;8.00;;;5.17;;
10550;SDS011;5324;50.684;3.862;2022-10-30T07:05:44;11.47;;;5.40;;
10550;SDS011;5324;50.684;3.862;2022-10-30T07:08:10;10.10;;;4.70;;
10550;SDS011;5324;50.684;3.862;2022-10-30T07:10:36;7.63;;;5.10;;
10550;SDS011;5324;50.684;3.862;2022-10-30T07:13:02;11.97;;;5.17;;
10550;SDS011;5324;50.684;3.862;2022-10-30T07:15:28;17.53;;;7.23;;
10550;SDS011;5324;50.684;3.862;2022-10-30T07:17:58;8.93;;;7.77;;
10550;SDS011;5324;50.684;3.862;2022-10-30T07:20:24;15.47;;;8.13;;
10550;SDS011;5324;50.684;3.862;2022-10-30T07:22:51;11.37;;;5.97;;
10550;SDS011;5324;50.684;3.862;2022-10-30T07:25:17;8.97;;;6.30;;
10550;SDS011;5324;50.684;3.862;2022-10-30T07:27:43;10.10;;;5.10;;
10550;SDS011;5324;50.684;3.862;2022-10-30T07:30:11;9.80;;;5.07;;
10550;SDS011;5324;50.684;3.862;2022-10-30T07:32:37;7.97;;;5.17;;
10550;SDS011;5324;50.684;3.862;2022-10-30T07:35:03;9.03;;;5.40;;
10550;SDS011;5324;50.684;3.862;2022-10-30T07:37:30;12.87;;;6.87;;
10550;SDS011;5324;50.684;3.862;2022-10-30T07:39:55;9.40;;;6.40;;
10550;SDS011;5324;50.684;3.862;2022-10-30T07:42:22;9.53;;;5.90;;
10550;SDS011;5324;50.684;3.862;2022-10-30T07:44:48;9.13;;;5.17;;
10550;SDS011;5324;50.684;3.862;2022-10-30T07:47:14;8.97;;;4.87;;
10550;SDS011;5324;50.684;3.862;2022-10-30T07:49:40;11.13;;;5.20;;
10550;SDS011;5324;50.684;3.862;2022-10-30T07:52:06;7.07;;;4.80;;
10550;SDS011;5324;50.684;3.862;2022-10-30T07:54:32;9.80;;;5.57;;
10550;SDS011;5324;50.684;3.862;2022-10-30T07:56:58;12.00;;;4.77;;
10550;SDS011;5324;50.684;3.862;2022-10-30T07:59:25;11.47;;;5.27;;
10550;SDS011;5324;50.684;3.862;2022-10-30T08:01:51;8.87;;;4.63;;
10550;SDS011;5324;50.684;3.862;2022-10-30T08:04:17;11.53;;;5.23;;
10550;SDS011;5324;50.684;3.862;2022-10-30T08:06:43;9.20;;;5.50;;
10550;SDS011;5324;50.684;3.862;2022-10-30T08:09:09;11.13;;;5.83;;
10550;SDS011;5324;50.684;3.862;2022-10-30T08:11:35;7.47;;;5.37;;
10550;SDS011;5324;50.684;3.862;2022-10-30T08:14:01;15.17;;;6.00;;
10550;SDS011;5324;50.684;3.862;2022-10-30T08:16:27;8.13;;;5.20;;
10550;SDS011;5324;50.684;3.862;2022-10-30T08:18:53;12.73;;;6.00;;
10550;SDS011;5324;50.684;3.862;2022-10-30T08:21:19;11.30;;;5.20;;
10550;SDS011;5324;50.684;3.862;2022-10-30T08:23:45;13.30;;;5.70;;
10550;SDS011;5324;50.684;3.862;2022-10-30T08:26:11;8.30;;;5.67;;
10550;SDS011;5324;50.684;3.862;2022-10-30T08:28:37;11.33;;;5.83;;
10550;SDS011;5324;50.684;3.862;2022-10-30T08:31:03;11.27;;;5.83;;
10550;SDS011;5324;50.684;3.862;2022-10-30T08:33:30;9.43;;;5.77;;
10550;SDS011;5324;50.684;3.862;2022-10-30T08:35:57;9.43;;;6.30;;
10550;SDS011;5324;50.684;3.862;2022-10-30T08:38:23;11.30;;;6.23;;
10550;SDS011;5324;50.684;3.862;2022-10-30T08:40:49;7.83;;;6.00;;
10550;SDS011;5324;50.684;3.862;2022-10-30T08:43:15;7.40;;;5.73;;
10550;SDS011;5324;50.684;3.862;2022-10-30T08:45:41;12.47;;;7.13;;
10550;SDS011;5324;50.684;3.862;2022-10-30T08:48:09;11.43;;;5.77;;
10550;SDS011;5324;50.684;3.862;2022-10-30T08:50:35;8.60;;;4.93;;
10550;SDS011;5324;50.684;3.862;2022-10-30T08:53:05;17.53;;;5.57;;
10550;SDS011;5324;50.684;3.862;2022-10-30T08:55:32;8.57;;;5.20;;
10550;SDS011;5324;50.684;3.862;2022-10-30T08:57:58;12.23;;;5.53;;
10550;SDS011;5324;50.684;3.862;2022-10-30T09:00:25;9.52;;;5.05;;
10550;SDS011;5324;50.684;3.862;2022-10-30T09:02:51;5.82;;;4.60;;
10550;SDS011;5324;50.684;3.862;2022-10-30T09:05:18;12.77;;;4.60;;
10550;SDS011;5324;50.684;3.862;2022-10-30T09:07:44;10.23;;;5.25;;
10550;SDS011;5324;50.684;3.862;2022-10-30T09:10:10;9.83;;;4.90;;
10550;SDS011;5324;50.684;3.862;2022-10-30T09:12:36;11.20;;;4.65;;
10550;SDS011;5324;50.684;3.862;2022-10-30T09:15:02;10.88;;;5.30;;
10550;SDS011;5324;50.684;3.862;2022-10-30T09:17:28;7.90;;;5.22;;
10550;SDS011;5324;50.684;3.862;2022-10-30T09:19:54;10.73;;;5.47;;
10550;SDS011;5324;50.684;3.862;2022-10-30T09:22:20;10.02;;;4.97;;
10550;SDS011;5324;50.684;3.862;2022-10-30T09:24:46;8.73;;;4.63;;
10550;SDS011;5324;50.684;3.862;2022-10-30T09:27:12;9.40;;;5.60;;
10550;SDS011;5324;50.684;3.862;2022-10-30T09:29:38;10.70;;;5.57;;
10550;SDS011;5324;50.684;3.862;2022-10-30T09:32:05;10.23;;;5.17;;
10550;SDS011;5324;50.684;3.862;2022-10-30T09:34:34;9.83;;;5.10;;
10550;SDS011;5324;50.684;3.862;2022-10-30T09:37:00;12.20;;;5.63;;
10550;SDS011;5324;50.684;3.862;2022-10-30T09:39:26;5.57;;;4.50;;
10550;SDS011;5324;50.684;3.862;2022-10-30T09:55:04;10.30;;;5.40;;
10550;SDS011;5324;50.684;3.862;2022-10-30T10:00:18;6.53;;;4.43;;
10550;SDS011;5324;50.684;3.862;2022-10-30T10:05:28;10.57;;;5.30;;
10550;SDS011;5324;50.684;3.862;2022-10-30T10:08:02;7.78;;;5.10;;
10550;SDS011;5324;50.684;3.862;2022-10-30T10:12:54;12.63;;;5.38;;
10550;SDS011;5324;50.684;3.862;2022-10-30T10:15:27;11.05;;;5.03;;
10550;SDS011;5324;50.684;3.862;2022-10-30T10:17:54;11.63;;;6.25;;
10550;SDS011;5324;50.684;3.862;2022-10-30T10:20:37;14.95;;;5.00;;
10550;SDS011;5324;50.684;3.862;2022-10-30T10:23:11;6.85;;;5.20;;
10550;SDS011;5324;50.684;3.862;2022-10-30T10:25:39;10.10;;;4.68;;
10550;SDS011;5324;50.684;3.862;2022-10-30T10:28:51;11.95;;;5.53;;
10550;SDS011;5324;50.684;3.862;2022-10-30T10:33:42;12.55;;;5.85;;
10550;SDS011;5324;50.684;3.862;2022-10-30T10:41:50;7.88;;;5.38;;
10550;SDS011;5324;50.684;3.862;2022-10-30T10:44:19;9.05;;;5.20;;
10550;SDS011;5324;50.684;3.862;2022-10-30T10:52:14;9.95;;;4.68;;
10550;SDS011;5324;50.684;3.862;2022-10-30T10:54:46;9.45;;;5.30;;
10550;SDS011;5324;50.684;3.862;2022-10-30T10:57:36;8.80;;;5.20;;
10550;SDS011;5324;50.684;3.862;2022-10-30T11:00:02;11.90;;;5.18;;
10550;SDS011;5324;50.684;3.862;2022-10-30T11:02:34;8.02;;;5.13;;
10550;SDS011;5324;50.684;3.862;2022-10-30T11:05:15;10.57;;;5.47;;
10550;SDS011;5324;50.684;3.862;2022-10-30T11:07:45;12.82;;;5.10;;
10550;SDS011;5324;50.684;3.862;2022-10-30T11:10:12;10.52;;;4.65;;
10550;SDS011;5324;50.684;3.862;2022-10-30T11:12:38;10.48;;;4.22;;
10550;SDS011;5324;50.684;3.862;2022-10-30T11:17:37;7.13;;;4.43;;
10550;SDS011;5324;50.684;3.862;2022-10-30T11:20:16;9.13;;;4.78;;
10550;SDS011;5324;50.684;3.862;2022-10-30T11:22:44;13.13;;;4.95;;
10550;SDS011;5324;50.684;3.862;2022-10-30T11:25:22;9.57;;;4.60;;
10550;SDS011;5324;50.684;3.862;2022-10-30T11:27:58;11.98;;;4.60;;
10550;SDS011;5324;50.684;3.862;2022-10-30T11:30:25;10.55;;;5.05;;
10550;SDS011;5324;50.684;3.862;2022-10-30T11:32:52;8.68;;;5.03;;
10550;SDS011;5324;50.684;3.862;2022-10-30T11:35:19;13.63;;;5.35;;
10550;SDS011;5324;50.684;3.862;2022-10-30T11:38:19;14.18;;;5.30;;
10550;SDS011;5324;50.684;3.862;2022-10-30T11:40:38;11.50;;;4.97;;
10550;SDS011;5324;50.684;3.862;2022-10-30T11:43:05;11.10;;;5.35;;
10550;SDS011;5324;50.684;3.862;2022-10-30T11:45:34;11.13;;;4.97;;
10550;SDS011;5324;50.684;3.862;2022-10-30T11:48:01;9.93;;;4.55;;
10550;SDS011;5324;50.684;3.862;2022-10-30T11:50:28;8.48;;;4.90;;
10550;SDS011;5324;50.684;3.862;2022-10-30T11:52:56;7.40;;;4.68;;
10550;SDS011;5324;50.684;3.862;2022-10-30T11:55:26;12.57;;;4.68;;
10550;SDS011;5324;50.684;3.862;2022-10-30T11:57:56;7.30;;;4.50;;
10550;SDS011;5324;50.684;3.862;2022-10-30T12:00:24;11.70;;;4.65;;
10550;SDS011;5324;50.684;3.862;2022-10-30T12:02:51;9.98;;;5.18;;
10550;SDS011;5324;50.684;3.862;2022-10-30T12:07:50;10.52;;;5.05;;
10550;SDS011;5324;50.684;3.862;2022-10-30T12:10:23;8.88;;;5.00;;
10550;SDS011;5324;50.684;3.862;2022-10-30T12:12:49;10.02;;;4.72;;
10550;SDS011;5324;50.684;3.862;2022-10-30T12:15:17;9.38;;;4.63;;
10550;SDS011;5324;50.684;3.862;2022-10-30T12:18:00;11.52;;;5.00;;
10550;SDS011;5324;50.684;3.862;2022-10-30T12:20:27;11.10;;;5.05;;
10550;SDS011;5324;50.684;3.862;2022-10-30T12:22:53;11.27;;;4.82;;
10550;SDS011;5324;50.684;3.862;2022-10-30T12:25:38;9.65;;;4.57;;
10550;SDS011;5324;50.684;3.862;2022-10-30T12:28:05;7.05;;;4.80;;
10550;SDS011;5324;50.684;3.862;2022-10-30T12:30:36;10.73;;;5.20;;
10550;SDS011;5324;50.684;3.862;2022-10-30T12:33:09;8.82;;;4.57;;
10550;SDS011;5324;50.684;3.862;2022-10-30T12:35:38;10.85;;;5.70;;
10550;SDS011;5324;50.684;3.862;2022-10-30T12:38:05;8.32;;;4.75;;
10550;SDS011;5324;50.684;3.862;2022-10-30T12:40:35;10.43;;;4.88;;
10550;SDS011;5324;50.684;3.862;2022-10-30T12:43:07;7.32;;;4.57;;
10550;SDS011;5324;50.684;3.862;2022-10-30T12:45:42;10.25;;;4.68;;
10550;SDS011;5324;50.684;3.862;2022-10-30T12:48:13;8.88;;;4.78;;
10550;SDS011;5324;50.684;3.862;2022-10-30T12:55:53;7.70;;;4.88;;
10550;SDS011;5324;50.684;3.862;2022-10-30T12:58:27;8.95;;;4.90;;
10550;SDS011;5324;50.684;3.862;2022-10-30T13:00:57;11.82;;;5.45;;
10550;SDS011;5324;50.684;3.862;2022-10-30T13:03:33;8.20;;;4.47;;
10550;SDS011;5324;50.684;3.862;2022-10-30T13:06:04;9.75;;;4.78;;
10550;SDS011;5324;50.684;3.862;2022-10-30T13:08:33;9.23;;;5.00;;
10550;SDS011;5324;50.684;3.862;2022-10-30T13:13:32;12.90;;;6.10;;
10550;SDS011;5324;50.684;3.862;2022-10-30T13:16:00;13.55;;;5.20;;
10550;SDS011;5324;50.684;3.862;2022-10-30T13:18:27;8.57;;;5.07;;
10550;SDS011;5324;50.684;3.862;2022-10-30T13:23:27;12.13;;;5.45;;
10550;SDS011;5324;50.684;3.862;2022-10-30T13:28:35;10.45;;;5.25;;
10550;SDS011;5324;50.684;3.862;2022-10-30T13:31:13;11.65;;;5.63;;
10550;SDS011;5324;50.684;3.862;2022-10-30T13:34:05;8.35;;;5.32;;
10550;SDS011;5324;50.684;3.862;2022-10-30T13:36:40;9.60;;;5.28;;
10550;SDS011;5324;50.684;3.862;2022-10-30T13:39:12;9.48;;;5.25;;
10550;SDS011;5324;50.684;3.862;2022-10-30T13:41:47;14.32;;;5.97;;
10550;SDS011;5324;50.684;3.862;2022-10-30T13:44:33;9.35;;;5.55;;
10550;SDS011;5324;50.684;3.862;2022-10-30T13:50:10;12.55;;;6.75;;
10550;SDS011;5324;50.684;3.862;2022-10-30T13:52:41;13.10;;;6.00;;
10550;SDS011;5324;50.684;3.862;2022-10-30T13:55:14;12.38;;;6.45;;
10550;SDS011;5324;50.684;3.862;2022-10-30T13:57:43;10.13;;;6.10;;
10550;SDS011;5324;50.684;3.862;2022-10-30T14:02:42;10.13;;;6.25;;
10550;SDS011;5324;50.684;3.862;2022-10-30T14:05:23;11.45;;;6.35;;
10550;SDS011;5324;50.684;3.862;2022-10-30T14:10:30;11.77;;;6.22;;
10550;SDS011;5324;50.684;3.862;2022-10-30T14:13:06;9.90;;;6.95;;
10550;SDS011;5324;50.684;3.862;2022-10-30T14:15:44;13.77;;;6.82;;
10550;SDS011;5324;50.684;3.862;2022-10-30T14:28:29;14.40;;;6.88;;
10550;SDS011;5324;50.684;3.862;2022-10-30T14:31:02;12.57;;;6.18;;
10550;SDS011;5324;50.684;3.862;2022-10-30T14:33:33;10.48;;;5.15;;
10550;SDS011;5324;50.684;3.862;2022-10-30T14:38:40;9.43;;;4.32;;
10550;SDS011;5324;50.684;3.862;2022-10-30T14:43:48;10.02;;;4.38;;
10550;SDS011;5324;50.684;3.862;2022-10-30T14:46:25;10.50;;;4.28;;
10550;SDS011;5324;50.684;3.862;2022-10-30T14:48:58;6.43;;;4.15;;
10550;SDS011;5324;50.684;3.862;2022-10-30T14:51:37;6.30;;;3.75;;
10550;SDS011;5324;50.684;3.862;2022-10-30T14:54:20;7.32;;;3.35;;
10550;SDS011;5324;50.684;3.862;2022-10-30T14:56:49;6.55;;;3.45;;
10550;SDS011;5324;50.684;3.862;2022-10-30T15:09:35;6.40;;;3.42;;
10550;SDS011;5324;50.684;3.862;2022-10-30T15:12:08;6.50;;;3.55;;
10550;SDS011;5324;50.684;3.862;2022-10-30T15:14:35;3.67;;;2.70;;
10550;SDS011;5324;50.684;3.862;2022-10-30T15:17:03;6.18;;;2.63;;
10550;SDS011;5324;50.684;3.862;2022-10-30T15:19:29;5.70;;;2.80;;
10550;SDS011;5324;50.684;3.862;2022-10-30T15:21:56;5.43;;;2.83;;
10550;SDS011;5324;50.684;3.862;2022-10-30T15:24:23;5.13;;;3.15;;
10550;SDS011;5324;50.684;3.862;2022-10-30T15:26:51;4.82;;;2.72;;
10550;SDS011;5324;50.684;3.862;2022-10-30T15:29:25;6.30;;;2.53;;
10550;SDS011;5324;50.684;3.862;2022-10-30T15:31:59;7.60;;;3.03;;
10550;SDS011;5324;50.684;3.862;2022-10-30T15:34:25;5.13;;;2.88;;
10550;SDS011;5324;50.684;3.862;2022-10-30T15:36:52;5.30;;;2.60;;
10550;SDS011;5324;50.684;3.862;2022-10-30T15:39:18;7.97;;;3.03;;
10550;SDS011;5324;50.684;3.862;2022-10-30T15:41:51;5.43;;;2.63;;
10550;SDS011;5324;50.684;3.862;2022-10-30T15:46:51;5.40;;;2.60;;
10550;SDS011;5324;50.684;3.862;2022-10-30T15:49:25;4.43;;;2.40;;
10550;SDS011;5324;50.684;3.862;2022-10-30T15:51:54;8.98;;;3.05;;
10550;SDS011;5324;50.684;3.862;2022-10-30T15:54:20;4.43;;;2.70;;
10550;SDS011;5324;50.684;3.862;2022-10-30T15:56:49;9.38;;;3.03;;
10550;SDS011;5324;50.684;3.862;2022-10-30T15:59:18;8.38;;;3.38;;
10550;SDS011;5324;50.684;3.862;2022-10-30T16:01:45;4.47;;;3.00;;
10550;SDS011;5324;50.684;3.862;2022-10-30T16:04:23;5.95;;;2.88;;
10550;SDS011;5324;50.684;3.862;2022-10-30T16:06:53;5.22;;;2.55;;
10550;SDS011;5324;50.684;3.862;2022-10-30T16:09:20;4.78;;;2.72;;
10550;SDS011;5324;50.684;3.862;2022-10-30T16:11:47;4.30;;;3.22;;
10550;SDS011;5324;50.684;3.862;2022-10-30T16:14:19;5.55;;;2.83;;
10550;SDS011;5324;50.684;3.862;2022-10-30T16:16:46;4.63;;;3.00;;
10550;SDS011;5324;50.684;3.862;2022-10-30T16:21:47;7.88;;;2.78;;
10550;SDS011;5324;50.684;3.862;2022-10-30T16:24:14;5.63;;;2.80;;
10550;SDS011;5324;50.684;3.862;2022-10-30T16:26:42;10.00;;;3.20;;
10550;SDS011;5324;50.684;3.862;2022-10-30T16:31:37;7.45;;;3.25;;
10550;SDS011;5324;50.684;3.862;2022-10-30T16:34:04;5.82;;;2.42;;
10550;SDS011;5324;50.684;3.862;2022-10-30T16:36:34;7.43;;;3.20;;
10550;SDS011;5324;50.684;3.862;2022-10-30T16:39:00;5.43;;;2.97;;
10550;SDS011;5324;50.684;3.862;2022-10-30T16:41:27;6.20;;;3.10;;
10550;SDS011;5324;50.684;3.862;2022-10-30T16:46:34;5.65;;;3.65;;
10550;SDS011;5324;50.684;3.862;2022-10-30T16:49:03;7.57;;;3.83;;
10550;SDS011;5324;50.684;3.862;2022-10-30T16:51:30;10.70;;;4.47;;
10550;SDS011;5324;50.684;3.862;2022-10-30T16:53:56;8.32;;;4.43;;
10550;SDS011;5324;50.684;3.862;2022-10-30T16:56:26;7.57;;;4.10;;
10550;SDS011;5324;50.684;3.862;2022-10-30T16:58:53;7.75;;;3.70;;
10550;SDS011;5324;50.684;3.862;2022-10-30T17:01:25;6.85;;;4.57;;